This is the latest recevied weather packets stored in our database for station/object OE-4057. If no packets are shown the sender has not sent any weather packets the latest 10 day(s).
| Time | Temp. | Humidity | Pressure | Rain* | Wind** | Luminosity | Snow |
|---|---|---|---|---|---|---|---|
| 1788117071 | 22.22° C | 66% | 1014.1 hPa | - | - | - | - |
| 1788113471 | 23.89° C | 60% | 1013.6 hPa | - | - | - | - |
| 1788108071 | 26.11° C | 50% | 1012.1 hPa | - | - | - | - |
| 1788104471 | 27.22° C | 46% | 1011.8 hPa | - | - | - | - |
| 1788102671 | 27.78° C | 42% | 1011.6 hPa | - | - | - | - |
| 1788100871 | 27.78° C | 41% | 1011.6 hPa | - | - | - | - |
| 1788099071 | 27.78° C | 41% | 1012.8 hPa | - | - | - | - |
| 1788097271 | 28.33° C | 39% | 1012.6 hPa | - | - | - | - |
| 1788095471 | 28.33° C | 39% | 1012.6 hPa | - | - | - | - |
| 1788091871 | 26.67° C | 39% | 1014 hPa | - | - | - | - |
| 1788090071 | 25.56° C | 44% | 1014.3 hPa | - | - | - | - |
| 1788088271 | 23.89° C | 50% | 1015.8 hPa | - | - | - | - |
| 1788086471 | 23.33° C | 51% | 1015.9 hPa | - | - | - | - |
| 1788084671 | 22.78° C | 54% | 1017.2 hPa | - | - | - | - |
| 1788082871 | 21.67° C | 57% | 1017.4 hPa | - | - | - | - |
| 1788081071 | 20° C | 64% | 1017.8 hPa | - | - | - | - |
| 1788079271 | 19.44° C | 67% | 1019.1 hPa | - | - | - | - |
| 1788077470 | 17.78° C | 72% | 1019.5 hPa | - | - | - | - |
| 1788075671 | 16.67° C | 78% | 1019.8 hPa | - | - | - | - |
| 1788073871 | 15.56° C | 83% | 1020.1 hPa | - | - | - | - |
| 1788072071 | 14.44° C | 86% | 1020.3 hPa | - | - | - | - |
| 1788070271 | 13.89° C | 88% | 1020.4 hPa | - | - | - | - |
| 1788068471 | 13.89° C | 88% | 1020.4 hPa | - | - | - | - |
| 1788066671 | 13.89° C | 87% | 1019.3 hPa | - | - | - | - |
| 1788064870 | 14.44° C | 87% | 1019.3 hPa | - | - | - | - |
* Rain since midnight (hover to see other rain measurements)
** Current wind speed in m/s (hover to see current wind gust speed)